Main page
METAR-TAF:

METAR-TAF

Airports :

Chhatrapati Shivaji International Airport

Mumbai, India

latitude: 19-07N, longitude: 072-51E, elevation: 8 m

Current weather observation

The report was made 12 minutes ago, at 09:30 UTC
Wind 11 kt from the West/Northwest
Temperature 34°C
Humidity 41%
Pressure 1010 hPa
Visibility: 4000 m
smoke

METAR: VABB 010930Z 30011KT 4000 FU NSC 34/19 Q1010 NOSIG

Time: 15:12 (09:42 UTC)

Forecast

The report was made 1 hour and 42 minutes ago, at 08:00 UTC
Forecast valid from 01 at 09 UTC to 01 at 18 UTC
Wind 10 kt from the West/Northwest
Visibility: 3000 m
Few clouds at a height of 10000 ft
smoke
Becoming
from 01 at 15 UTC to 01 at 17 UTC
Wind 6 kt from the North/Northwest

TAF: VABB 010800Z 0109/0118 29010KT 3000 FU FEW100 BECMG 0115/0117 33006KT NSC

Weather observations and forecasts of more than 4000 airports (METAR and TAF reports).

The available stations are represented by yellow and red dots on the map.

Hover mouse over dot to see the name of the station.

Then click to see weather observations and forecasts.

To change the map : click on the green buttons with a black cross to zoom in, on the green button with a dash to zoom out, or on the green arrows for adjacent maps.


METAR-TAF: